Time;durP1;ratioP1;P1;durP2;ratioP2;P2;SDS_P1;SDS_P2;PMS_P1;PMS_P2;Temp;Humidity;BMP_temperature;BMP_pressure;BME280_temperature;BME280_humidity;BME280_pressure;Samples;Min_cycle;Max_cycle;Signal;HPM_P1;HPM_P2
2021/03/25 00:01:50;;;;;;;13.70;8.00;;;5.50;99.90;;;;;;4957168;28;20033;-84
2021/03/25 00:04:16;;;;;;;14.27;6.97;;;5.30;99.90;;;;;;4974550;28;20467;-84
2021/03/25 00:06:50;;;;;;;12.70;7.25;;;5.40;99.90;;;;;;4957117;28;20034;-84
2021/03/25 00:09:28;;;;;;;11.32;6.78;;;5.40;99.90;;;;;;4957525;28;20023;-84
2021/03/25 00:11:55;;;;;;;11.30;6.72;;;5.30;99.90;;;;;;4957014;28;20031;-84
2021/03/25 00:14:21;;;;;;;21.88;7.75;;;5.20;99.90;;;;;;4957041;28;20019;-84
2021/03/25 00:16:47;;;;;;;14.63;7.97;;;5.10;99.90;;;;;;4957063;28;20023;-83
2021/03/25 00:19:13;;;;;;;13.70;7.03;;;5.00;99.90;;;;;;4974379;28;20402;-83
2021/03/25 00:21:39;;;;;;;12.90;7.53;;;5.00;99.90;;;;;;4957269;28;20119;-84
2021/03/25 00:24:07;;;;;;;11.75;7.20;;;5.20;99.90;;;;;;4957025;28;20109;-84
2021/03/25 00:26:33;;;;;;;17.05;7.32;;;4.80;99.90;;;;;;4974253;28;20062;-84
2021/03/25 00:28:59;;;;;;;11.82;7.07;;;4.90;99.90;;;;;;4957064;28;20097;-84
2021/03/25 00:31:25;;;;;;;13.73;7.82;;;4.90;99.90;;;;;;4957015;28;20105;-84
2021/03/25 00:33:51;;;;;;;10.20;6.40;;;5.00;99.90;;;;;;4974846;28;20081;-84
2021/03/25 00:36:18;;;;;;;10.27;6.82;;;5.30;99.90;;;;;;4956985;28;20061;-84
2021/03/25 00:38:43;;;;;;;14.30;6.68;;;5.40;99.90;;;;;;4956915;28;20110;-84
2021/03/25 00:41:09;;;;;;;12.57;7.15;;;5.30;99.90;;;;;;4956906;28;20061;-84
2021/03/25 00:43:35;;;;;;;12.57;7.10;;;5.10;99.90;;;;;;4956919;28;20027;-84
2021/03/25 00:46:01;;;;;;;10.55;6.70;;;5.10;99.90;;;;;;4976900;28;20062;-84
2021/03/25 00:48:26;;;;;;;11.15;6.85;;;5.00;99.90;;;;;;4960466;28;20026;-84
2021/03/25 00:50:55;;;;;;;13.35;7.30;;;5.10;99.90;;;;;;4960314;28;20046;-84
2021/03/25 00:53:26;;;;;;;13.00;7.57;;;4.90;99.90;;;;;;4960303;28;20118;-84
2021/03/25 00:55:53;;;;;;;13.88;7.50;;;4.80;99.90;;;;;;4960166;28;20391;-83
2021/03/25 00:58:19;;;;;;;12.13;6.65;;;4.80;99.90;;;;;;4960239;28;20441;-84
2021/03/25 01:00:46;;;;;;;12.90;6.82;;;4.90;99.90;;;;;;4960199;28;20026;-84
2021/03/25 01:03:14;;;;;;;13.43;6.88;;;5.10;99.90;;;;;;4977513;28;20029;-84
2021/03/25 01:05:41;;;;;;;12.02;7.78;;;4.80;99.90;;;;;;4960020;28;20135;-84
2021/03/25 01:08:08;;;;;;;13.30;6.97;;;5.00;99.90;;;;;;4959983;28;20470;-84
2021/03/25 01:10:40;;;;;;;12.52;7.07;;;5.00;99.90;;;;;;4959991;28;20077;-84
2021/03/25 01:13:12;;;;;;;10.55;7.03;;;4.90;99.90;;;;;;4959994;28;20027;-84
2021/03/25 01:15:38;;;;;;;13.23;6.57;;;4.90;99.90;;;;;;4959864;28;20023;-84
2021/03/25 01:18:06;;;;;;;13.43;6.93;;;5.10;99.90;;;;;;4959641;28;20045;-84
2021/03/25 01:20:35;;;;;;;12.00;6.80;;;5.20;99.90;;;;;;4977165;28;20030;-84
2021/03/25 01:23:01;;;;;;;12.30;6.38;;;5.30;99.90;;;;;;4959742;28;20023;-84
2021/03/25 01:25:28;;;;;;;13.27;6.43;;;5.20;99.90;;;;;;4959648;28;20552;-84
2021/03/25 01:27:55;;;;;;;13.88;6.93;;;5.00;99.90;;;;;;4959673;28;20023;-84
2021/03/25 01:30:22;;;;;;;11.13;6.82;;;5.00;99.90;;;;;;4959619;28;20038;-84
2021/03/25 01:32:47;;;;;;;10.82;6.38;;;5.10;99.90;;;;;;4976430;28;20031;-84
2021/03/25 01:35:14;;;;;;;11.85;6.38;;;5.10;99.90;;;;;;4959504;28;20165;-84
2021/03/25 01:37:41;;;;;;;12.07;6.72;;;5.00;99.90;;;;;;4976750;28;20398;-84
2021/03/25 01:40:34;;;;;;;10.50;6.63;;;5.20;99.90;;;;;;4959449;28;20026;-84
2021/03/25 01:43:27;;;;;;;10.95;6.35;;;5.10;99.90;;;;;;4976798;28;20019;-84
2021/03/25 01:46:01;;;;;;;11.27;6.50;;;4.90;99.90;;;;;;4959359;28;20085;-84
2021/03/25 01:48:36;;;;;;;11.85;7.85;;;5.10;99.90;;;;;;4959268;28;20049;-84
2021/03/25 01:51:38;;;;;;;9.95;6.07;;;4.60;99.90;;;;;;4976659;28;20098;-84
2021/03/25 01:54:25;;;;;;;12.90;6.32;;;4.80;99.90;;;;;;4959138;28;20023;-84
2021/03/25 01:57:05;;;;;;;13.63;6.55;;;5.00;99.90;;;;;;4976187;28;20089;-84
2021/03/25 01:59:43;;;;;;;14.02;6.35;;;5.00;99.90;;;;;;4959159;28;20023;-84
2021/03/25 02:02:16;;;;;;;15.10;6.20;;;4.80;99.90;;;;;;4976393;28;20022;-84
2021/03/25 02:05:03;;;;;;;10.52;6.55;;;4.50;99.90;;;;;;4976263;28;20030;-84
2021/03/25 02:07:42;;;;;;;10.40;6.22;;;4.50;99.90;;;;;;4958865;28;20034;-84
2021/03/25 02:10:24;;;;;;;11.77;6.30;;;4.50;99.90;;;;;;4958927;28;20367;-84
2021/03/25 02:12:56;;;;;;;14.00;6.78;;;4.70;99.90;;;;;;4958954;28;20022;-84
2021/03/25 02:15:39;;;;;;;11.32;7.20;;;4.70;99.90;;;;;;4959638;28;20022;-84
2021/03/25 02:18:13;;;;;;;13.52;6.50;;;4.60;99.90;;;;;;4959061;28;20052;-84
2021/03/25 02:20:47;;;;;;;14.98;7.07;;;4.60;99.90;;;;;;4976110;28;20118;-84
2021/03/25 02:23:21;;;;;;;11.03;6.70;;;4.70;99.90;;;;;;4958772;28;20033;-84
2021/03/25 02:25:57;;;;;;;12.93;6.50;;;4.70;99.90;;;;;;4958617;28;20486;-84
2021/03/25 02:28:53;;;;;;;14.50;7.30;;;4.80;99.90;;;;;;4958614;28;20427;-84
2021/03/25 02:31:33;;;;;;;12.07;6.60;;;4.80;99.90;;;;;;4958550;28;20023;-83
2021/03/25 02:34:10;;;;;;;10.52;6.25;;;4.70;99.90;;;;;;4975764;28;20483;-84
2021/03/25 02:36:58;;;;;;;9.55;6.25;;;4.80;99.90;;;;;;4958500;28;20050;-84
2021/03/25 02:39:33;;;;;;;11.52;6.07;;;4.70;99.90;;;;;;4975739;28;20054;-84
2021/03/25 02:42:01;;;;;;;11.68;6.78;;;4.60;99.90;;;;;;4958610;28;20037;-84
2021/03/25 02:44:50;;;;;;;9.50;5.97;;;4.50;99.90;;;;;;4975647;28;20034;-84
2021/03/25 02:47:19;;;;;;;10.07;6.07;;;4.50;99.90;;;;;;4975561;28;20026;-84
2021/03/25 02:49:55;;;;;;;9.65;6.25;;;4.40;99.90;;;;;;4958208;28;20023;-84
2021/03/25 02:52:25;;;;;;;12.02;6.40;;;4.50;99.90;;;;;;4958249;28;20082;-84
2021/03/25 02:54:52;;;;;;;11.63;6.38;;;4.40;99.90;;;;;;4975528;28;20026;-84
2021/03/25 02:57:42;;;;;;;13.32;6.63;;;4.10;99.90;;;;;;4958104;28;20030;-84
2021/03/25 03:00:13;;;;;;;17.45;7.32;;;3.90;99.90;;;;;;4958058;28;20486;-84
2021/03/25 03:02:43;;;;;;;12.55;7.13;;;4.00;99.90;;;;;;4958002;28;20027;-84
2021/03/25 03:05:15;;;;;;;9.85;6.32;;;3.90;99.90;;;;;;4957836;28;20118;-84
2021/03/25 03:08:08;;;;;;;15.48;6.68;;;4.20;99.90;;;;;;4974742;28;20116;-84
2021/03/25 03:10:52;;;;;;;11.88;6.30;;;4.40;99.90;;;;;;4957886;28;20482;-84
2021/03/25 03:13:22;;;;;;;13.15;6.75;;;3.90;99.90;;;;;;4958009;28;20037;-84
2021/03/25 03:15:59;;;;;;;9.73;5.78;;;4.10;99.90;;;;;;4975136;28;20030;-83
2021/03/25 03:18:31;;;;;;;12.32;6.32;;;3.90;99.90;;;;;;4974926;28;20038;-83
2021/03/25 03:21:05;;;;;;;11.15;5.47;;;3.80;99.90;;;;;;4975135;28;20027;-84
2021/03/25 03:23:33;;;;;;;;;;;3.90;99.90;;;;;;4958143;28;20027;-84
2021/03/25 03:26:05;;;;;;;8.57;5.47;;;4.20;99.90;;;;;;4957639;28;19910;-84
2021/03/25 03:28:37;;;;;;;9.20;5.47;;;4.20;99.90;;;;;;4942019;28;20035;-83
2021/03/25 03:31:08;;;;;;;11.60;6.35;;;4.20;99.90;;;;;;4957685;28;20030;-84
2021/03/25 03:33:43;;;;;;;8.27;5.22;;;4.00;99.90;;;;;;4957639;28;20026;-84
2021/03/25 03:36:17;;;;;;;11.27;5.45;;;4.00;99.90;;;;;;4957637;28;20023;-84
2021/03/25 03:38:48;;;;;;;9.52;6.07;;;4.10;99.90;;;;;;4957640;28;20503;-84
2021/03/25 03:41:16;;;;;;;9.52;5.38;;;4.10;99.90;;;;;;4957550;28;20088;-84
2021/03/25 03:43:43;;;;;;;8.05;4.95;;;4.10;99.90;;;;;;4957469;28;20023;-83
2021/03/25 03:46:15;;;;;;;8.95;5.85;;;4.30;99.90;;;;;;4957385;28;20030;-84
2021/03/25 03:48:50;;;;;;;9.27;5.32;;;4.20;99.90;;;;;;4957528;28;20097;-84
2021/03/25 03:51:31;;;;;;;10.80;5.93;;;3.80;99.90;;;;;;4957524;28;20023;-84
2021/03/25 03:53:58;;;;;;;9.88;5.97;;;3.50;99.90;;;;;;4974852;28;20359;-84
2021/03/25 03:56:56;;;;;;;11.75;5.85;;;3.70;99.90;;;;;;4957317;28;20030;-84
2021/03/25 03:59:30;;;;;;;11.15;5.60;;;4.10;99.90;;;;;;4889298;28;20533;-84
2021/03/25 04:02:42;;;;;;;8.35;5.22;;;4.00;99.90;;;;;;4957719;28;20109;-85
2021/03/25 04:05:16;;;;;;;9.05;5.28;;;3.60;99.90;;;;;;4862861;29;20048;-85
2021/03/25 04:07:46;;;;;;;9.07;5.90;;;3.80;99.90;;;;;;4945808;28;20089;-84
2021/03/25 04:10:17;;;;;;;8.13;5.38;;;3.70;99.90;;;;;;4957305;28;20034;-84
2021/03/25 04:12:55;;;;;;;8.43;5.10;;;3.70;99.90;;;;;;4957316;28;20027;-84
2021/03/25 04:15:31;;;;;;;8.90;5.00;;;3.90;99.90;;;;;;4957149;28;20034;-84
2021/03/25 04:18:10;;;;;;;7.55;5.00;;;4.00;99.90;;;;;;4957176;28;20055;-84
2021/03/25 04:20:45;;;;;;;10.63;5.28;;;4.30;99.90;;;;;;4959476;28;20483;-84
2021/03/25 04:23:16;;;;;;;8.55;5.05;;;4.40;99.90;;;;;;4961044;28;20029;-85
2021/03/25 04:25:54;;;;;;;8.40;5.00;;;4.40;99.90;;;;;;4960998;28;20121;-84
2021/03/25 04:28:36;;;;;;;8.20;5.00;;;4.00;99.90;;;;;;4978481;28;20077;-84
2021/03/25 04:31:04;;;;;;;9.18;5.13;;;3.60;99.90;;;;;;4978167;28;20033;-85
2021/03/25 04:33:30;;;;;;;7.05;5.00;;;3.80;99.90;;;;;;4960830;28;20025;-84
2021/03/25 04:35:58;;;;;;;11.65;5.05;;;3.90;99.90;;;;;;4978163;28;20033;-85
2021/03/25 04:38:30;;;;;;;8.93;5.18;;;4.10;99.90;;;;;;4978060;28;20471;-85
2021/03/25 04:40:57;;;;;;;7.70;4.55;;;3.80;99.90;;;;;;4960730;28;20038;-84
2021/03/25 04:43:24;;;;;;;12.07;4.75;;;3.80;99.90;;;;;;4960741;28;20085;-85
2021/03/25 04:45:58;;;;;;;9.02;5.47;;;4.10;99.90;;;;;;4960708;28;20026;-84
2021/03/25 04:48:27;;;;;;;11.05;4.97;;;4.20;99.90;;;;;;4960770;28;20029;-84
2021/03/25 04:50:58;;;;;;;9.13;5.15;;;4.30;99.90;;;;;;4960767;28;20031;-84
2021/03/25 04:53:32;;;;;;;8.02;4.90;;;4.10;99.90;;;;;;4960616;28;20077;-85
2021/03/25 04:56:00;;;;;;;6.15;4.15;;;4.10;99.90;;;;;;4961081;28;20023;-84
2021/03/25 04:58:38;;;;;;;9.85;5.35;;;4.20;99.90;;;;;;4960490;28;20039;-84
2021/03/25 05:01:06;;;;;;;6.90;4.72;;;3.70;99.90;;;;;;4960584;28;20027;-84
2021/03/25 05:03:32;;;;;;;8.80;4.50;;;3.80;99.90;;;;;;4960358;28;20054;-85
2021/03/25 05:05:58;;;;;;;8.60;5.03;;;3.80;99.90;;;;;;4960339;28;20465;-85
2021/03/25 05:08:30;;;;;;;12.10;5.85;;;3.60;99.90;;;;;;4960616;28;20505;-84
2021/03/25 05:11:10;;;;;;;9.45;5.63;;;3.40;99.90;;;;;;4960420;28;20445;-84
2021/03/25 05:13:39;;;;;;;11.57;5.53;;;3.40;99.90;;;;;;4960429;28;20050;-84
2021/03/25 05:16:05;;;;;;;10.50;6.25;;;3.40;99.90;;;;;;4960089;28;20027;-84
2021/03/25 05:18:34;;;;;;;13.65;6.18;;;3.60;99.90;;;;;;4977373;28;20501;-84
2021/03/25 05:21:16;;;;;;;16.73;6.70;;;3.40;99.90;;;;;;4960056;28;20097;-83
2021/03/25 05:23:46;;;;;;;11.25;5.63;;;3.20;99.90;;;;;;4959822;28;20026;-84
2021/03/25 05:26:26;;;;;;;9.48;4.75;;;3.20;99.90;;;;;;4959816;28;20052;-84
2021/03/25 05:29:00;;;;;;;13.48;5.47;;;3.40;99.90;;;;;;4977268;28;20378;-84
2021/03/25 05:31:28;;;;;;;11.68;5.32;;;3.50;99.90;;;;;;4959312;28;20022;-84
2021/03/25 05:33:57;;;;;;;9.25;5.63;;;3.50;99.90;;;;;;4960148;28;20475;-84
2021/03/25 05:36:23;;;;;;;11.65;5.78;;;3.30;99.90;;;;;;4977078;28;20034;-84
2021/03/25 05:38:49;;;;;;;8.25;5.20;;;3.10;99.90;;;;;;4959737;28;20023;-84
2021/03/25 05:41:53;;;;;;;9.30;5.15;;;3.10;99.90;;;;;;4977143;28;20041;-84
2021/03/25 05:44:47;;;;;;;13.85;5.32;;;3.00;99.90;;;;;;4959928;28;20200;-84
2021/03/25 05:47:34;;;;;;;10.90;5.45;;;3.20;99.90;;;;;;4959725;28;20126;-84
2021/03/25 05:50:30;;;;;;;8.55;5.20;;;3.50;99.90;;;;;;4959650;28;20034;-83
2021/03/25 05:53:16;;;;;;;8.07;5.35;;;3.70;99.90;;;;;;4959660;28;20086;-84
2021/03/25 05:56:08;;;;;;;9.13;5.40;;;4.10;99.90;;;;;;4959569;28;20025;-83
2021/03/25 05:58:34;;;;;;;13.55;6.30;;;3.90;99.90;;;;;;4959540;28;20425;-84
2021/03/25 06:01:18;;;;;;;8.90;5.00;;;3.50;99.90;;;;;;4959564;28;20027;-84
2021/03/25 06:04:11;;;;;;;7.75;5.40;;;3.40;99.90;;;;;;4959383;28;20076;-84
2021/03/25 06:06:55;;;;;;;17.50;6.88;;;3.80;99.90;;;;;;4959392;28;20185;-84
2021/03/25 06:09:58;;;;;;;10.45;6.05;;;4.10;99.90;;;;;;4976743;28;20019;-84
2021/03/25 06:12:42;;;;;;;17.70;10.55;;;4.20;99.90;;;;;;4959225;28;20031;-84
2021/03/25 06:15:26;;;;;;;10.27;5.35;;;4.10;99.90;;;;;;4976769;28;20114;-84
2021/03/25 06:18:07;;;;;;;9.90;6.07;;;4.00;99.90;;;;;;4976260;28;20050;-84
2021/03/25 06:20:46;;;;;;;13.32;5.20;;;3.80;99.90;;;;;;4959037;28;20501;-84
2021/03/25 06:23:29;;;;;;;8.75;5.15;;;3.70;99.90;;;;;;4958991;28;20027;-84
2021/03/25 06:26:01;;;;;;;10.10;5.63;;;3.50;99.90;;;;;;4958726;28;20479;-84
2021/03/25 06:28:35;;;;;;;9.25;6.05;;;3.70;99.90;;;;;;4958993;28;20058;-84
2021/03/25 06:31:03;;;;;;;10.10;5.55;;;3.80;99.90;;;;;;4958808;28;20031;-84
2021/03/25 06:33:47;;;;;;;10.93;6.22;;;3.90;99.90;;;;;;4958984;28;20031;-83
2021/03/25 06:36:16;;;;;;;11.63;5.72;;;4.00;99.90;;;;;;4959148;28;20030;-84
2021/03/25 06:38:56;;;;;;;8.55;5.63;;;4.00;99.90;;;;;;4959831;28;20031;-85
2021/03/25 06:41:23;;;;;;;10.75;5.97;;;4.10;99.90;;;;;;4976414;28;20106;-84
2021/03/25 06:44:06;;;;;;;12.23;6.22;;;4.40;99.90;;;;;;4958690;28;20046;-85
2021/03/25 06:46:37;;;;;;;8.82;6.30;;;4.70;99.90;;;;;;4958609;28;20023;-85
2021/03/25 06:49:39;;;;;;;9.95;5.80;;;4.80;99.90;;;;;;4958740;28;20031;-85
2021/03/25 06:52:30;;;;;;;10.88;5.55;;;4.90;99.90;;;;;;4958437;28;20019;-85
2021/03/25 06:55:10;;;;;;;10.63;5.68;;;4.90;99.90;;;;;;4958522;28;20077;-85
2021/03/25 06:57:41;;;;;;;10.10;5.95;;;4.90;99.90;;;;;;4958507;28;20038;-85
2021/03/25 07:00:11;;;;;;;10.45;5.82;;;4.90;99.90;;;;;;4975769;28;20026;-84
2021/03/25 07:02:37;;;;;;;10.45;5.60;;;5.00;99.90;;;;;;4958384;28;20479;-85
2021/03/25 07:05:08;;;;;;;9.70;5.80;;;5.10;99.90;;;;;;4958183;28;20026;-84
2021/03/25 07:07:38;;;;;;;10.35;5.32;;;5.30;99.90;;;;;;4958100;28;20054;-84
2021/03/25 07:10:05;;;;;;;8.73;4.88;;;5.40;99.90;;;;;;4958117;28;20027;-84
2021/03/25 07:12:37;;;;;;;10.73;5.28;;;5.70;99.90;;;;;;4958111;28;20031;-84
2021/03/25 07:15:06;;;;;;;8.43;5.35;;;6.00;99.90;;;;;;4958059;28;20482;-83
2021/03/25 07:17:34;;;;;;;9.18;5.50;;;6.20;99.90;;;;;;4957676;28;20050;-84
2021/03/25 07:20:11;;;;;;;9.48;5.30;;;6.30;99.90;;;;;;4958378;28;20027;-84
2021/03/25 07:22:37;;;;;;;9.40;5.97;;;6.50;99.90;;;;;;4958291;28;20382;-84
2021/03/25 07:25:18;;;;;;;8.15;5.07;;;6.60;99.90;;;;;;4958065;28;20031;-84
2021/03/25 07:27:44;;;;;;;6.95;5.13;;;6.50;99.90;;;;;;4957814;28;20027;-83
2021/03/25 07:30:19;;;;;;;10.02;5.68;;;6.60;99.90;;;;;;4957987;28;20050;-84
2021/03/25 07:32:53;;;;;;;6.15;4.40;;;6.60;99.90;;;;;;4975342;28;20094;-85
2021/03/25 07:35:44;;;;;;;7.57;5.05;;;6.70;99.90;;;;;;4957737;28;20386;-85
2021/03/25 07:38:26;;;;;;;11.38;5.30;;;6.90;99.90;;;;;;4958036;28;20034;-85
2021/03/25 07:41:25;;;;;;;9.57;5.20;;;7.00;99.90;;;;;;4957612;28;20026;-85
2021/03/25 07:44:04;;;;;;;10.50;5.28;;;7.10;99.90;;;;;;4975351;28;20027;-86
2021/03/25 07:46:29;;;;;;;9.45;5.10;;;7.30;99.90;;;;;;4958095;28;20130;-85
2021/03/25 07:49:11;;;;;;;10.43;5.55;;;7.50;99.90;;;;;;4957638;28;20506;-86
2021/03/25 07:51:50;;;;;;;8.15;5.40;;;7.70;99.90;;;;;;4975178;28;20422;-86
2021/03/25 07:54:18;;;;;;;11.90;5.50;;;7.90;99.90;;;;;;4959085;28;20026;-86
2021/03/25 07:57:09;;;;;;;10.98;5.63;;;8.10;99.90;;;;;;4964185;28;20371;-86
2021/03/25 07:59:55;;;;;;;9.70;5.15;;;8.30;99.90;;;;;;4981787;28;20023;-86
2021/03/25 08:02:33;;;;;;;11.25;5.88;;;8.50;99.90;;;;;;4963766;28;20070;-86
2021/03/25 08:05:19;;;;;;;11.05;5.55;;;8.60;99.90;;;;;;4981722;28;20023;-86
2021/03/25 08:07:47;;;;;;;8.77;5.18;;;8.80;99.90;;;;;;4981305;28;20114;-86
2021/03/25 08:10:36;;;;;;;11.18;5.25;;;8.90;99.90;;;;;;4964058;28;20033;-85
2021/03/25 08:13:17;;;;;;;10.85;5.20;;;9.10;99.90;;;;;;4964248;28;20027;-85
2021/03/25 08:15:50;;;;;;;11.23;5.63;;;9.20;99.90;;;;;;4981344;28;20050;-85
2021/03/25 08:18:37;;;;;;;8.33;5.30;;;9.40;99.90;;;;;;4963774;28;20109;-85
2021/03/25 08:21:26;;;;;;;9.98;5.05;;;9.50;99.90;;;;;;4981350;28;20748;-85
2021/03/25 08:24:02;;;;;;;13.23;5.47;;;9.60;99.90;;;;;;4981393;28;20109;-85
2021/03/25 08:27:05;;;;;;;11.82;5.45;;;9.80;99.90;;;;;;4964005;28;20027;-86
2021/03/25 08:29:44;;;;;;;9.48;5.32;;;9.90;99.90;;;;;;4959881;28;20038;-86
2021/03/25 08:32:13;;;;;;;12.82;5.60;;;10.10;99.90;;;;;;4963842;28;20042;-86
2021/03/25 08:34:44;;;;;;;8.82;4.78;;;10.20;99.90;;;;;;4963891;28;20022;-86
2021/03/25 08:37:15;;;;;;;11.27;5.35;;;10.40;99.90;;;;;;4981361;28;20040;-85
2021/03/25 08:39:56;;;;;;;16.65;4.90;;;10.60;99.90;;;;;;4963872;28;20035;-86
2021/03/25 08:42:33;;;;;;;12.32;5.63;;;10.80;99.90;;;;;;4963688;28;20031;-86
2021/03/25 08:45:12;;;;;;;10.40;5.55;;;10.90;99.90;;;;;;4963797;28;20046;-84
2021/03/25 08:47:52;;;;;;;17.15;7.00;;;11.00;99.90;;;;;;4963504;28;20121;-85
2021/03/25 08:50:40;;;;;;;19.75;7.13;;;11.20;99.90;;;;;;4982258;28;20030;-89
2021/03/25 08:53:36;;;;;;;19.42;7.22;;;11.60;99.90;;;;;;4965510;28;20023;-89
2021/03/25 08:56:14;;;;;;;14.70;6.60;;;11.80;99.90;;;;;;4933870;28;20481;-89
2021/03/25 08:58:40;;;;;;;12.95;6.07;;;12.00;99.90;;;;;;4965813;28;20082;-89
2021/03/25 09:01:14;;;;;;;14.80;6.68;;;12.20;99.90;;;;;;4969180;28;20023;-88
2021/03/25 09:03:47;;;;;;;13.45;5.57;;;12.60;99.90;;;;;;4969079;28;20026;-89
2021/03/25 09:06:21;;;;;;;8.27;4.68;;;12.90;99.90;;;;;;4966633;28;20482;-88
2021/03/25 09:08:51;;;;;;;8.93;5.00;;;13.00;99.90;;;;;;4963631;28;20366;-89
2021/03/25 09:11:19;;;;;;;19.45;5.25;;;13.10;99.90;;;;;;4962558;28;20034;-90
2021/03/25 09:13:50;;;;;;;11.68;4.65;;;13.60;99.90;;;;;;4962319;28;20057;-89
2021/03/25 09:16:35;;;;;;;9.50;4.60;;;13.60;99.90;;;;;;4962669;28;20364;-89
2021/03/25 09:19:03;;;;;;;10.18;4.80;;;13.70;99.90;;;;;;4962392;28;20047;-88
2021/03/25 09:21:32;;;;;;;7.63;4.30;;;13.80;99.90;;;;;;4961933;28;20479;-89
2021/03/25 09:24:02;;;;;;;10.80;4.88;;;13.90;99.90;;;;;;4962233;28;20030;-89
2021/03/25 09:26:27;;;;;;;8.55;4.70;;;14.00;99.90;;;;;;4962603;28;20052;-90
2021/03/25 09:28:58;;;;;;;12.02;5.13;;;14.20;99.90;;;;;;4962446;28;20037;-89
2021/03/25 09:31:26;;;;;;;11.25;4.95;;;14.20;99.90;;;;;;4963983;28;20113;-89
2021/03/25 09:34:12;;;;;;;12.93;5.53;;;14.30;99.90;;;;;;4963180;28;20506;-89
2021/03/25 09:36:45;;;;;;;11.95;5.35;;;14.30;99.90;;;;;;4960973;28;20077;-89
2021/03/25 09:39:18;;;;;;;10.40;5.53;;;14.50;99.90;;;;;;4962604;28;20382;-89
2021/03/25 09:41:44;;;;;;;17.33;8.90;;;14.70;99.90;;;;;;4963145;28;20030;-89
2021/03/25 09:44:10;;;;;;;12.52;5.03;;;14.60;99.90;;;;;;4961853;28;20023;-89
2021/03/25 09:46:46;;;;;;;7.18;4.65;;;14.70;99.90;;;;;;4965817;28;20027;-91
2021/03/25 09:49:18;;;;;;;8.45;5.05;;;14.90;99.90;;;;;;4964804;28;20027;-89
2021/03/25 09:54:47;;;;;;;13.70;4.63;;;15.40;99.40;;;;;;4982067;28;20050;-89
2021/03/25 09:57:25;;;;;;;8.50;4.20;;;15.60;97.10;;;;;;4961374;28;20038;-90
2021/03/25 10:00:27;;;;;;;11.27;4.50;;;15.70;95.60;;;;;;4961360;28;20030;-89
2021/03/25 10:02:58;;;;;;;7.85;4.35;;;15.80;95.50;;;;;;4919669;28;20117;-89
2021/03/25 10:05:36;;;;;;;11.05;4.43;;;16.10;94.40;;;;;;4961671;28;20034;-89
2021/03/25 10:08:15;;;;;;;10.48;4.47;;;15.90;93.90;;;;;;4960768;28;20023;-89
2021/03/25 10:10:44;;;;;;;10.63;4.93;;;16.10;93.30;;;;;;4960656;28;20495;-89
2021/03/25 10:13:14;;;;;;;8.20;4.95;;;16.10;93.20;;;;;;4960217;28;20050;-88
2021/03/25 10:15:42;;;;;;;11.27;5.10;;;16.00;91.90;;;;;;4960385;28;20101;-88
2021/03/25 10:18:17;;;;;;;8.57;4.40;;;16.10;91.20;;;;;;4976718;28;20517;-88
2021/03/25 10:20:49;;;;;;;6.50;3.78;;;16.30;91.30;;;;;;4960623;28;20038;-89
2021/03/25 10:23:25;;;;;;;10.15;5.10;;;16.30;90.40;;;;;;4960387;28;20034;-88
2021/03/25 10:26:12;;;;;;;7.72;4.70;;;16.40;90.40;;;;;;4959902;28;20027;-89
2021/03/25 10:28:45;;;;;;;7.63;4.63;;;16.50;90.20;;;;;;4960763;28;20497;-89
2021/03/25 10:31:27;;;;;;;12.52;5.07;;;16.70;90.30;;;;;;4960785;28;20023;-89
2021/03/25 10:33:55;;;;;;;11.27;4.68;;;17.00;92.00;;;;;;4960006;28;20489;-89
2021/03/25 10:36:36;;;;;;;14.70;4.60;;;17.20;92.20;;;;;;4961373;28;20049;-90
2021/03/25 10:39:05;;;;;;;20.45;5.68;;;17.30;91.30;;;;;;4960809;28;20026;-88
2021/03/25 10:41:38;;;;;;;12.32;4.57;;;17.70;91.10;;;;;;4960555;28;20026;-89
2021/03/25 10:44:30;;;;;;;13.55;5.13;;;18.00;91.10;;;;;;4960643;28;20030;-88
2021/03/25 10:47:01;;;;;;;13.57;5.28;;;17.50;88.80;;;;;;4976754;28;20031;-88
2021/03/25 10:49:31;;;;;;;10.32;4.65;;;16.50;91.00;;;;;;4959779;28;20031;-88
2021/03/25 10:51:57;;;;;;;14.38;4.78;;;16.10;91.70;;;;;;4977242;28;20026;-88
2021/03/25 10:54:35;;;;;;;9.88;4.35;;;15.80;92.30;;;;;;4959794;28;20031;-88
2021/03/25 10:57:07;;;;;;;13.90;4.60;;;16.30;91.70;;;;;;4960052;28;20430;-89
2021/03/25 10:59:34;;;;;;;9.77;4.70;;;15.80;91.40;;;;;;4959564;28;20457;-88
2021/03/25 11:02:01;;;;;;;11.02;4.90;;;15.40;92.00;;;;;;4959778;28;20109;-89
2021/03/25 11:04:34;;;;;;;8.95;5.43;;;15.50;92.10;;;;;;4960882;28;20027;-89
2021/03/25 11:07:17;;;;;;;13.10;5.15;;;15.30;92.50;;;;;;4960849;28;20076;-88
2021/03/25 11:09:58;;;;;;;10.57;4.63;;;15.20;93.50;;;;;;4960460;28;20022;-89
2021/03/25 11:12:31;;;;;;;8.60;3.92;;;15.50;93.50;;;;;;4960549;28;20474;-89
2021/03/25 11:15:07;;;;;;;10.10;4.32;;;15.80;93.10;;;;;;4961451;28;20027;-89
2021/03/25 11:17:39;;;;;;;8.57;4.38;;;16.40;92.20;;;;;;4963425;28;20061;-88
2021/03/25 11:20:11;;;;;;;7.47;3.88;;;15.70;91.50;;;;;;4962609;28;20080;-89
2021/03/25 11:22:38;;;;;;;6.78;4.13;;;16.00;91.80;;;;;;4960229;28;20451;-88
2021/03/25 11:25:15;;;;;;;8.52;4.55;;;16.80;91.20;;;;;;4960033;28;20497;-87
2021/03/25 11:27:41;;;;;;;49.30;5.70;;;17.30;89.80;;;;;;4959764;28;20501;-87
2021/03/25 11:30:16;;;;;;;8.18;4.35;;;17.70;89.80;;;;;;4958874;28;20061;-88
2021/03/25 11:32:44;;;;;;;13.50;4.32;;;19.10;84.70;;;;;;4961017;28;20019;-88
2021/03/25 11:35:33;;;;;;;6.40;3.97;;;20.10;79.10;;;;;;4959949;28;20114;-89
2021/03/25 11:38:28;;;;;;;9.95;4.78;;;20.30;77.80;;;;;;4959453;28;20030;-88
2021/03/25 11:40:58;;;;;;;10.95;4.32;;;19.50;75.90;;;;;;4959597;28;20533;-88
2021/03/25 11:43:46;;;;;;;9.23;4.40;;;19.00;78.50;;;;;;4960408;28;20483;-88
2021/03/25 11:46:28;;;;;;;6.82;3.85;;;18.80;76.40;;;;;;4960397;28;20169;-88
2021/03/25 11:49:05;;;;;;;7.90;4.18;;;19.00;78.50;;;;;;4960164;28;20010;-88
2021/03/25 11:51:36;;;;;;;7.25;3.80;;;19.80;75.50;;;;;;4960621;28;20023;-88
2021/03/25 11:54:19;;;;;;;7.53;3.95;;;20.10;75.20;;;;;;4959775;28;20170;-88
2021/03/25 11:56:55;;;;;;;4.68;3.35;;;20.50;73.10;;;;;;4959690;28;20031;-87
2021/03/25 11:59:28;;;;;;;7.97;3.58;;;20.80;69.40;;;;;;4961046;28;20033;-88
2021/03/25 12:02:28;;;;;;;5.35;3.35;;;21.30;67.40;;;;;;4960192;28;20034;-88
2021/03/25 12:04:55;;;;;;;7.40;3.72;;;21.20;65.70;;;;;;4919463;28;20046;-89
2021/03/25 12:07:25;;;;;;;9.75;3.47;;;21.50;65.10;;;;;;4976611;28;20019;-88
2021/03/25 12:10:14;;;;;;;6.68;3.33;;;21.20;64.50;;;;;;4960346;28;20031;-88
2021/03/25 12:12:44;;;;;;;8.07;3.03;;;21.30;64.10;;;;;;4959143;28;20023;-88
2021/03/25 12:15:11;;;;;;;4.93;2.28;;;21.20;62.50;;;;;;4958606;28;20027;-86
2021/03/25 12:17:44;;;;;;;3.45;2.15;;;21.00;59.40;;;;;;4958911;28;20075;-89
2021/03/25 12:20:35;;;;;;;4.57;2.00;;;20.40;60.10;;;;;;4960828;28;20031;-88
2021/03/25 12:23:23;;;;;;;3.35;2.33;;;20.10;59.90;;;;;;4959398;28;20042;-87
2021/03/25 12:25:52;;;;;;;6.05;2.40;;;19.40;59.80;;;;;;4958260;28;20035;-88
2021/03/25 12:28:18;;;;;;;3.33;2.05;;;18.90;60.50;;;;;;4958474;28;20054;-88
2021/03/25 12:30:45;;;;;;;3.38;2.03;;;18.80;60.40;;;;;;4958390;28;20023;-88
2021/03/25 12:33:23;;;;;;;5.10;2.15;;;18.40;61.30;;;;;;4959006;28;20483;-88
2021/03/25 12:35:49;;;;;;;5.45;2.00;;;18.00;62.50;;;;;;4959080;28;20058;-88
2021/03/25 12:38:16;;;;;;;3.58;1.48;;;17.70;61.10;;;;;;4958771;28;20038;-88
2021/03/25 12:40:42;;;;;;;3.67;2.30;;;17.40;61.80;;;;;;4959927;28;20023;-88
2021/03/25 12:43:10;;;;;;;4.50;2.25;;;17.30;63.10;;;;;;4962218;28;20508;-88
2021/03/25 12:45:42;;;;;;;4.28;2.10;;;17.20;64.50;;;;;;4962714;28;20027;-88
2021/03/25 12:48:08;;;;;;;3.85;1.90;;;17.20;64.80;;;;;;4979570;28;20117;-88
2021/03/25 12:50:35;;;;;;;4.35;2.13;;;17.10;65.20;;;;;;4963329;28;20031;-88
2021/03/25 12:53:02;;;;;;;3.90;2.13;;;17.10;66.30;;;;;;4962260;28;20390;-88
2021/03/25 12:55:28;;;;;;;4.20;2.22;;;17.40;66.90;;;;;;4979209;28;20467;-88
2021/03/25 12:57:55;;;;;;;4.07;2.00;;;17.80;65.90;;;;;;4961995;28;20121;-88
2021/03/25 13:00:34;;;;;;;5.45;1.77;;;17.60;65.40;;;;;;4961918;28;20034;-87
2021/03/25 13:03:00;;;;;;;8.73;2.97;;;17.90;65.70;;;;;;4962153;28;20031;-87
2021/03/25 13:05:27;;;;;;;7.32;3.53;;;18.80;67.70;;;;;;4962826;28;20027;-88
2021/03/25 13:07:53;;;;;;;6.45;3.50;;;19.30;66.50;;;;;;4963087;28;20530;-88
2021/03/25 13:10:21;;;;;;;8.00;2.90;;;19.50;63.50;;;;;;4961868;28;20063;-88
2021/03/25 13:12:47;;;;;;;7.10;3.55;;;20.20;61.70;;;;;;4962422;28;20027;-88
2021/03/25 13:15:15;;;;;;;7.47;3.08;;;20.70;60.70;;;;;;4961959;28;20019;-89
2021/03/25 13:17:41;;;;;;;4.72;3.10;;;21.10;59.10;;;;;;4961321;28;20061;-87
2021/03/25 13:20:09;;;;;;;4.72;2.65;;;21.20;58.90;;;;;;4961788;28;20031;-89
2021/03/25 13:22:34;;;;;;;5.85;2.78;;;20.90;57.50;;;;;;4963527;28;20470;-89
2021/03/25 13:25:00;;;;;;;8.65;2.78;;;20.40;57.90;;;;;;4961829;28;20030;-89
2021/03/25 13:27:26;;;;;;;4.50;2.83;;;19.90;57.90;;;;;;4962776;28;20031;-88
2021/03/25 13:29:52;;;;;;;5.45;2.88;;;19.10;57.70;;;;;;4963671;28;20032;-89